Time;durP1;ratioP1;P1;durP2;ratioP2;P2;SDS_P1;SDS_P2;PMS_P1;PMS_P2;Temp;Humidity;BMP_temperature;BMP_pressure;BME280_temperature;BME280_humidity;BME280_pressure;Samples;Min_cycle;Max_cycle;Signal;HPM_P1;HPM_P2
2022/08/10 00:01:07;;;;;;;3.08;1.45;;;18.80;73.90;;;18.69;52.20;97871.13;4975237;28;20052;-46
2022/08/10 00:03:33;;;;;;;3.35;1.50;;;18.80;74.40;;;18.66;52.46;97866.00;4987020;28;20430;-46
2022/08/10 00:05:58;;;;;;;1.95;1.30;;;18.80;74.60;;;18.57;53.20;97860.34;4987319;28;20640;-46
2022/08/10 00:08:24;;;;;;;2.55;1.52;;;18.70;75.10;;;18.58;53.16;97862.94;4972850;28;20042;-46
2022/08/10 00:10:52;;;;;;;1.83;1.45;;;18.60;75.10;;;18.55;53.67;97870.28;4989435;28;20092;-49
2022/08/10 00:13:18;;;;;;;1.65;1.35;;;18.60;75.50;;;18.50;53.37;97868.75;4996526;28;20026;-47
2022/08/10 00:15:44;;;;;;;2.85;1.63;;;18.60;75.20;;;18.49;53.41;97871.53;4993184;28;20354;-45
2022/08/10 00:18:10;;;;;;;2.85;1.30;;;18.60;75.20;;;18.50;53.88;97871.44;4990229;28;20449;-49
2022/08/10 00:20:35;;;;;;;5.22;1.60;;;18.60;75.60;;;18.48;54.58;97872.47;4991199;28;20036;-48
2022/08/10 00:23:01;;;;;;;1.65;1.40;;;18.60;76.40;;;18.43;54.58;97867.44;4996784;28;20040;-46
2022/08/10 00:25:27;;;;;;;2.90;1.40;;;18.50;76.10;;;18.40;54.70;97872.09;4987914;28;20128;-49
2022/08/10 00:27:53;;;;;;;1.58;1.40;;;18.50;76.30;;;18.36;55.31;97874.09;4989562;28;20236;-47
2022/08/10 00:30:18;;;;;;;1.88;1.50;;;18.50;76.90;;;18.33;55.63;97873.44;4989875;28;20402;-47
2022/08/10 00:32:44;;;;;;;4.03;1.70;;;18.40;77.00;;;18.30;55.98;97869.13;4985358;28;20037;-47
2022/08/10 00:35:10;;;;;;;4.78;1.92;;;18.30;77.40;;;18.28;56.09;97865.69;4991775;28;20037;-48
2022/08/10 00:37:35;;;;;;;2.58;1.58;;;18.30;77.60;;;18.27;56.02;97869.31;4985382;28;20524;-48
2022/08/10 00:40:03;;;;;;;1.67;1.40;;;18.30;77.50;;;18.28;55.75;97865.69;4987515;28;20121;-49
2022/08/10 00:42:29;;;;;;;1.45;1.10;;;18.30;77.40;;;18.31;55.76;97870.84;4991185;28;20437;-50
2022/08/10 00:44:55;;;;;;;1.60;1.40;;;18.30;77.40;;;18.31;56.42;97866.34;4994362;28;20021;-46
2022/08/10 00:47:21;;;;;;;1.60;1.50;;;18.40;77.90;;;18.34;55.75;97867.13;4989701;28;20042;-49
2022/08/10 00:49:47;;;;;;;7.13;1.52;;;18.40;77.60;;;18.32;55.63;97864.53;4966968;28;20057;-45
2022/08/10 00:52:17;;;;;;;1.75;1.50;;;18.40;77.20;;;18.27;56.53;97861.31;4974300;28;20061;-46
2022/08/10 00:54:43;;;;;;;2.35;1.73;;;18.30;77.90;;;18.23;56.93;97851.75;4983991;28;20510;-45
2022/08/10 00:57:10;;;;;;;2.17;1.40;;;18.30;78.30;;;18.18;57.78;97856.50;4961744;28;20038;-47
2022/08/10 00:59:36;;;;;;;2.22;1.48;;;18.30;78.90;;;18.11;58.08;97853.38;4968850;28;20262;-45
2022/08/10 01:02:02;;;;;;;2.33;1.50;;;18.20;79.20;;;18.02;58.24;97851.25;4978872;28;20697;-46
2022/08/10 01:04:28;;;;;;;3.35;1.50;;;18.20;79.40;;;18.02;58.77;97859.25;4981680;28;20661;-49
2022/08/10 01:07:30;;;;;;;1.35;1.13;;;18.10;79.80;;;17.97;59.26;97858.69;4976420;28;20030;-47
2022/08/10 01:10:14;;;;;;;2.45;1.52;;;18.10;80.30;;;17.91;59.41;97854.56;4991407;28;20298;-46
2022/08/10 01:12:57;;;;;;;1.70;1.45;;;18.00;80.40;;;17.85;60.03;97855.75;4986037;28;20034;-47
2022/08/10 01:15:28;;;;;;;1.48;1.27;;;17.90;80.80;;;17.83;60.03;97854.13;4989030;28;20298;-47
2022/08/10 01:18:31;;;;;;;2.03;1.48;;;17.90;80.90;;;17.78;59.88;97859.72;4981134;28;20067;-45
2022/08/10 01:21:40;;;;;;;1.52;1.30;;;17.90;80.80;;;17.74;59.79;97861.69;4984442;28;20231;-46
2022/08/10 01:24:33;;;;;;;3.22;1.60;;;17.80;80.90;;;17.67;59.98;97849.66;4941694;28;20050;-46
2022/08/10 01:27:25;;;;;;;2.50;1.40;;;17.80;81.10;;;17.75;60.23;97860.75;4965687;28;20035;-46
2022/08/10 01:30:03;;;;;;;2.05;1.50;;;17.80;81.20;;;17.76;60.26;97858.94;4969724;28;20117;-47
2022/08/10 01:32:49;;;;;;;7.30;1.52;;;17.80;81.40;;;17.77;60.11;97863.34;5012453;22;20076;-61
2022/08/10 01:35:46;;;;;;;2.08;1.35;;;17.80;81.20;;;17.73;60.36;97860.00;4982270;28;20409;-61
2022/08/10 01:38:26;;;;;;;2.28;1.52;;;17.80;81.50;;;17.69;61.16;97863.81;5010883;28;20033;-61
2022/08/10 01:41:06;;;;;;;1.42;1.20;;;17.80;82.00;;;17.65;61.50;97864.06;4986122;28;20500;-60
2022/08/10 01:43:38;;;;;;;3.08;1.45;;;17.70;82.30;;;17.59;61.92;97859.94;4992975;28;20033;-61
2022/08/10 01:46:04;;;;;;;;;;;17.70;82.60;;;17.55;62.22;97866.41;5005395;28;20034;-61
2022/08/10 01:48:35;;;;;;;2.05;1.35;;;17.60;82.80;;;17.50;62.24;97861.34;5007873;28;19924;-60
2022/08/10 01:51:22;;;;;;;2.47;1.50;;;17.60;83.00;;;17.47;62.36;97860.66;4986566;28;20041;-60
2022/08/10 01:53:57;;;;;;;1.90;1.50;;;17.50;83.10;;;17.43;62.57;97867.13;5000356;28;20088;-60
2022/08/10 01:56:25;;;;;;;1.80;1.40;;;17.50;83.30;;;17.39;62.75;97865.53;5008045;28;20469;-60
2022/08/10 01:59:00;;;;;;;2.33;1.33;;;17.50;83.50;;;17.35;63.68;97868.41;5002140;28;20041;-60
2022/08/10 02:01:32;;;;;;;1.45;1.30;;;17.40;84.10;;;17.31;63.78;97860.66;4979798;28;20029;-60
2022/08/10 02:04:04;;;;;;;1.75;1.13;;;17.40;84.30;;;17.28;63.91;97871.50;4988972;28;20030;-60
2022/08/10 02:06:33;;;;;;;2.05;1.45;;;17.30;84.20;;;17.23;63.99;97869.09;4997974;28;20044;-60
2022/08/10 02:09:01;;;;;;;1.35;1.25;;;17.30;84.40;;;17.20;64.26;97871.09;4991568;28;20067;-61
2022/08/10 02:11:29;;;;;;;2.17;1.40;;;17.20;84.70;;;17.15;64.55;97866.00;5006330;28;20457;-60
2022/08/10 02:13:58;;;;;;;1.52;1.33;;;17.20;85.00;;;17.10;65.03;97854.72;4991387;28;20394;-60
2022/08/10 02:16:25;;;;;;;2.50;1.30;;;17.20;85.40;;;17.08;65.10;97859.28;5001869;28;20507;-60
2022/08/10 02:18:53;;;;;;;1.70;1.60;;;17.10;85.50;;;17.05;64.84;97864.78;5007961;28;20033;-60
2022/08/10 02:21:21;;;;;;;1.40;1.13;;;17.10;85.50;;;17.03;65.25;97859.56;5003491;28;20087;-60
2022/08/10 02:23:48;;;;;;;1.30;1.20;;;17.10;85.70;;;17.00;65.92;97859.72;5010044;28;20099;-60
2022/08/10 02:26:14;;;;;;;1.60;1.48;;;17.10;86.30;;;16.96;66.43;97858.19;5010872;28;20037;-60
2022/08/10 02:28:42;;;;;;;2.47;1.38;;;17.00;86.50;;;16.91;67.18;97862.91;5009977;28;20052;-60
2022/08/10 02:31:17;;;;;;;3.17;1.30;;;17.00;87.10;;;16.86;67.40;97863.16;5004392;28;20033;-60
2022/08/10 02:33:46;;;;;;;3.47;1.60;;;16.90;87.30;;;16.83;66.85;97857.97;4988878;28;20021;-60
2022/08/10 02:36:13;;;;;;;2.00;1.20;;;16.90;87.10;;;16.83;66.98;97865.09;5011541;28;20496;-60
2022/08/10 02:38:50;;;;;;;2.40;1.50;;;16.90;87.20;;;16.78;67.47;97868.03;5009324;28;20065;-60
2022/08/10 02:41:41;;;;;;;3.00;1.40;;;16.80;87.50;;;16.74;67.59;97866.44;4992922;28;20029;-60
2022/08/10 02:44:42;;;;;;;1.73;1.38;;;16.80;87.70;;;16.71;67.78;97866.63;5005699;28;20065;-60
2022/08/10 02:47:17;;;;;;;2.72;1.60;;;16.80;87.90;;;16.70;68.49;97870.22;4991217;28;20041;-60
2022/08/10 02:49:56;;;;;;;2.22;1.42;;;16.80;88.50;;;16.65;68.73;97859.81;5006501;28;20087;-60
2022/08/10 02:52:30;;;;;;;1.80;1.60;;;16.70;88.60;;;16.61;69.20;97875.09;4990424;28;20029;-60
2022/08/10 02:55:10;;;;;;;3.95;1.70;;;16.70;88.90;;;16.58;69.47;97864.63;4986129;28;20052;-60
2022/08/10 02:57:39;;;;;;;1.65;1.30;;;16.70;89.10;;;16.58;69.82;97874.41;4988254;28;20402;-62
2022/08/10 03:00:07;;;;;;;1.95;1.63;;;16.60;89.40;;;16.54;69.98;97873.72;4990353;28;20048;-60
2022/08/10 03:02:37;;;;;;;2.08;1.50;;;16.60;89.60;;;16.52;69.98;97867.59;4968233;28;20060;-60
2022/08/10 03:05:08;;;;;;;3.13;1.60;;;16.60;89.70;;;16.49;70.20;97867.78;5005942;28;20072;-60
2022/08/10 03:07:58;;;;;;;1.52;1.30;;;16.60;89.80;;;16.45;69.79;97866.22;5010903;28;20033;-60
2022/08/10 03:10:28;;;;;;;2.05;1.42;;;16.50;89.70;;;16.43;69.95;97862.78;4988778;28;20029;-60
2022/08/10 03:13:01;;;;;;;1.48;1.38;;;16.50;89.90;;;16.39;70.00;97866.56;4983632;28;20025;-60
2022/08/10 03:15:29;;;;;;;1.75;1.40;;;16.50;90.00;;;16.38;69.88;97860.38;5002963;28;20289;-60
2022/08/10 03:17:56;;;;;;;1.83;1.33;;;16.50;90.00;;;16.36;70.15;97864.03;5003217;28;20741;-60
2022/08/10 03:20:23;;;;;;;2.47;1.30;;;16.40;90.10;;;16.32;70.52;97862.50;5009942;28;20128;-60
2022/08/10 03:22:50;;;;;;;2.50;1.50;;;16.40;90.20;;;16.28;70.40;97860.94;5002379;28;20147;-60
2022/08/10 03:25:20;;;;;;;1.80;1.52;;;16.30;90.20;;;16.30;70.42;97865.25;4987359;28;20041;-60
2022/08/10 03:27:48;;;;;;;1.88;1.30;;;16.30;90.20;;;16.27;70.28;97864.53;4992245;28;20667;-60
2022/08/10 03:30:15;;;;;;;1.70;1.45;;;16.30;90.20;;;16.21;70.46;97868.38;4990838;28;20045;-60
2022/08/10 03:32:42;;;;;;;1.80;1.40;;;16.30;90.30;;;16.23;70.58;97867.34;4990944;28;20721;-60
2022/08/10 03:35:10;;;;;;;1.40;1.30;;;16.30;90.30;;;16.20;70.69;97880.84;4989082;28;20029;-60
2022/08/10 03:37:36;;;;;;;1.77;1.30;;;16.30;90.40;;;16.20;70.42;97874.63;4993374;28;20040;-60
2022/08/10 03:40:03;;;;;;;2.30;1.55;;;16.20;90.40;;;16.15;70.96;97874.00;5007734;28;20037;-60
2022/08/10 03:42:32;;;;;;;5.07;1.55;;;16.20;90.50;;;16.14;71.97;97874.97;5009726;28;20434;-60
2022/08/10 03:45:01;;;;;;;1.70;1.55;;;16.20;90.90;;;16.08;72.47;97867.28;4993654;28;20080;-60
2022/08/10 03:47:29;;;;;;;1.92;1.50;;;16.20;91.00;;;16.03;72.49;97873.72;4994120;28;20080;-60
2022/08/10 03:49:57;;;;;;;1.77;1.58;;;16.10;91.00;;;16.02;72.55;97871.13;4993465;28;20029;-60
2022/08/10 03:52:23;;;;;;;2.22;1.98;;;16.10;91.10;;;16.01;72.62;97877.41;5007366;28;20095;-60
2022/08/10 03:54:52;;;;;;;3.28;1.52;;;16.10;91.10;;;16.02;72.74;97879.09;4983982;28;20128;-60
2022/08/10 03:57:19;;;;;;;5.20;1.58;;;16.10;91.20;;;15.89;72.72;97870.06;4990969;28;20048;-60
2022/08/10 03:59:46;;;;;;;4.07;1.55;;;16.10;91.20;;;15.98;72.88;97874.91;5012089;28;20033;-60
2022/08/10 04:02:13;;;;;;;2.00;1.63;;;16.10;91.30;;;15.95;73.20;97877.69;4986492;28;20524;-61
2022/08/10 04:04:39;;;;;;;1.50;1.40;;;16.00;91.40;;;15.89;73.15;97875.38;5012479;28;20059;-60
2022/08/10 04:07:05;;;;;;;2.13;1.67;;;16.00;91.50;;;15.89;73.68;97881.53;5011808;28;20071;-61
2022/08/10 04:09:34;;;;;;;2.33;1.55;;;16.00;91.60;;;15.86;74.37;97886.16;4994304;28;20052;-60
2022/08/10 04:12:00;;;;;;;3.05;1.60;;;15.90;91.90;;;15.83;74.52;97890.69;5013101;28;20381;-60
2022/08/10 04:14:26;;;;;;;2.05;1.40;;;15.90;91.90;;;15.83;75.49;97893.34;5012627;28;20181;-60
2022/08/10 04:16:52;;;;;;;4.43;1.80;;;15.90;92.30;;;15.80;76.72;97898.81;5006822;28;20033;-60
2022/08/10 04:19:18;;;;;;;2.28;1.50;;;15.90;92.70;;;15.75;77.09;97890.22;5016376;28;20063;-60
2022/08/10 04:21:59;;;;;;;2.38;1.60;;;15.90;92.90;;;15.68;77.46;97887.91;5010061;28;20068;-60
2022/08/10 04:24:26;;;;;;;2.47;1.60;;;15.90;93.00;;;15.66;77.87;97894.16;5009519;28;20086;-60
2022/08/10 04:26:52;;;;;;;2.78;1.42;;;15.80;93.20;;;15.61;78.30;97893.53;4989200;28;20442;-60
2022/08/10 04:29:18;;;;;;;2.08;1.65;;;15.70;93.40;;;15.57;78.71;97897.25;5010259;28;20044;-60
2022/08/10 04:31:45;;;;;;;3.00;1.60;;;15.70;93.60;;;15.53;78.94;97901.03;5003608;28;20030;-60
2022/08/10 04:34:14;;;;;;;2.00;1.50;;;15.60;93.70;;;15.50;78.86;97898.50;5010256;28;20718;-60
2022/08/10 04:36:41;;;;;;;1.92;1.52;;;15.60;93.80;;;15.43;79.11;97895.31;5014653;28;20382;-60
2022/08/10 04:39:07;;;;;;;2.38;1.70;;;15.60;93.90;;;15.44;79.21;97909.44;5007860;28;20065;-60
2022/08/10 04:41:34;;;;;;;2.55;1.63;;;15.60;94.00;;;15.43;79.00;97902.41;5015255;28;20037;-60
2022/08/10 04:44:00;;;;;;;2.42;1.58;;;15.60;94.00;;;15.42;78.83;97898.88;4992835;28;20053;-60
2022/08/10 04:46:26;;;;;;;2.40;1.52;;;15.50;94.00;;;15.42;78.78;97901.53;4993412;28;20092;-60
2022/08/10 04:48:51;;;;;;;2.08;1.60;;;15.50;94.00;;;15.45;79.15;97901.41;5011532;28;20418;-60
2022/08/10 04:51:17;;;;;;;3.58;1.65;;;15.50;94.10;;;15.48;79.59;97904.84;4992331;28;20031;-60
2022/08/10 04:53:44;;;;;;;1.63;1.52;;;15.50;94.30;;;15.47;79.48;97901.34;5003854;28;20875;-60
2022/08/10 04:56:09;;;;;;;3.22;1.92;;;15.60;94.40;;;15.50;79.85;97898.50;5003870;28;20204;-60
2022/08/10 04:58:35;;;;;;;1.90;1.52;;;15.60;94.50;;;15.53;79.87;97903.69;5009790;28;20037;-60
2022/08/10 05:01:02;;;;;;;2.58;1.58;;;15.70;94.60;;;15.56;79.86;97897.34;5004549;28;20603;-60
2022/08/10 05:03:27;;;;;;;2.65;1.60;;;15.70;94.60;;;15.62;78.99;97900.56;5008552;28;20040;-60
2022/08/10 05:05:53;;;;;;;1.95;1.60;;;15.70;94.40;;;15.68;78.47;97903.84;5013487;28;20049;-60
2022/08/10 05:08:19;;;;;;;2.67;1.90;;;15.80;94.20;;;15.75;77.47;97895.53;5012992;28;20037;-60
2022/08/10 05:10:45;;;;;;;2.20;1.80;;;15.90;93.90;;;15.86;76.86;97904.78;5007166;28;20117;-60
2022/08/10 05:13:10;;;;;;;3.80;1.63;;;16.00;93.70;;;15.89;76.71;97891.31;5010528;28;20037;-60
2022/08/10 05:15:36;;;;;;;1.75;1.45;;;16.10;93.70;;;16.00;76.37;97903.13;5009102;28;20025;-60
2022/08/10 05:18:02;;;;;;;3.30;1.70;;;16.10;93.60;;;16.12;76.12;97903.47;5008886;28;20397;-60
2022/08/10 05:20:28;;;;;;;2.75;1.60;;;16.20;93.50;;;16.19;75.76;97908.38;5001394;28;20034;-60
2022/08/10 05:22:53;;;;;;;2.88;1.52;;;16.30;93.40;;;16.30;75.63;97913.16;5004300;28;20140;-60
2022/08/10 05:25:19;;;;;;;2.92;1.70;;;16.40;93.70;;;16.42;74.21;97916.97;5004369;28;20028;-60
2022/08/10 05:27:46;;;;;;;3.90;2.00;;;16.60;92.90;;;16.54;72.57;97912.78;5008958;28;20546;-60
2022/08/10 05:30:16;;;;;;;2.75;1.80;;;16.70;92.30;;;16.61;71.71;97911.53;5010059;28;20037;-60
2022/08/10 05:32:42;;;;;;;3.42;1.67;;;16.80;92.00;;;16.73;71.33;97915.34;5008832;28;20079;-60
2022/08/10 05:35:08;;;;;;;2.33;1.58;;;16.90;91.80;;;16.84;71.22;97906.81;5004213;28;20044;-60
2022/08/10 05:37:34;;;;;;;4.25;1.83;;;17.00;91.80;;;16.89;71.51;97910.09;5005411;28;20041;-60
2022/08/10 05:40:04;;;;;;;3.05;1.90;;;17.10;91.90;;;16.97;70.64;97910.50;4986949;28;20068;-60
2022/08/10 05:42:30;;;;;;;4.65;1.67;;;17.10;91.60;;;17.06;70.24;97917.16;5007354;28;20504;-60
2022/08/10 05:44:56;;;;;;;3.17;1.80;;;17.20;91.50;;;17.11;69.11;97912.44;5012739;28;20125;-60
2022/08/10 05:47:22;;;;;;;2.58;1.70;;;17.30;91.10;;;17.18;69.87;97914.66;5009961;28;20095;-60
2022/08/10 05:49:48;;;;;;;5.15;1.55;;;17.40;91.40;;;17.22;66.91;97904.69;5007934;28;20198;-60
2022/08/10 05:52:15;;;;;;;5.22;1.65;;;17.40;90.40;;;17.33;66.92;97920.94;4997529;28;21191;-60
2022/08/10 05:54:42;;;;;;;3.33;2.00;;;17.50;90.40;;;17.42;66.96;97921.38;4983990;28;20055;-61
2022/08/10 05:57:10;;;;;;;1.65;1.50;;;17.60;90.40;;;17.50;66.58;97921.81;4981717;28;20076;-62
2022/08/10 05:59:43;;;;;;;2.67;1.63;;;17.70;90.40;;;17.59;66.34;97921.28;5004821;28;20033;-60
2022/08/10 06:02:12;;;;;;;2.85;1.60;;;17.70;90.20;;;17.68;65.86;97919.91;4999564;28;20301;-60
2022/08/10 06:04:43;;;;;;;2.90;2.10;;;17.80;90.10;;;17.75;64.90;97930.13;4982166;28;20047;-60
2022/08/10 06:07:13;;;;;;;5.10;1.50;;;17.90;89.50;;;17.87;64.31;97920.59;5004111;28;20038;-60
2022/08/10 06:09:42;;;;;;;2.50;1.60;;;18.00;89.20;;;17.97;63.77;97920.06;4991335;28;20040;-60
2022/08/10 06:12:09;;;;;;;3.72;1.73;;;18.10;88.70;;;18.05;63.64;97921.31;4995115;28;20032;-60
2022/08/10 06:17:37;;;;;;;2.22;1.70;;;18.30;88.30;;;18.30;62.85;97928.72;4896267;29;20124;-60
2022/08/10 06:20:04;;;;;;;1.60;1.45;;;18.40;87.90;;;18.46;62.13;97923.28;4984140;28;20049;-60
2022/08/10 06:22:34;;;;;;;3.40;1.70;;;18.60;87.50;;;18.58;60.59;97924.38;5017285;28;20519;-60
2022/08/10 06:25:02;;;;;;;2.35;1.73;;;18.70;86.70;;;18.73;59.51;97919.03;5010020;28;20388;-60
2022/08/10 06:27:28;;;;;;;3.17;1.92;;;18.80;85.50;;;18.93;57.15;97923.19;5014632;28;20094;-60
2022/08/10 06:29:55;;;;;;;2.13;1.50;;;19.00;84.20;;;19.07;57.15;97928.50;5006838;28;20033;-60
2022/08/10 06:32:27;;;;;;;4.28;1.73;;;19.20;83.80;;;19.23;55.59;97915.03;5006540;28;20163;-60
2022/08/10 06:34:55;;;;;;;2.53;1.50;;;19.30;82.30;;;19.40;55.07;97924.66;5015140;28;20029;-60
2022/08/10 06:37:26;;;;;;;2.60;1.60;;;19.50;82.10;;;19.54;54.64;97921.06;5021335;28;20072;-60
2022/08/10 06:39:52;;;;;;;2.80;1.90;;;19.60;81.50;;;19.65;52.87;97930.13;5020690;28;20041;-60
2022/08/10 06:42:34;;;;;;;2.08;1.45;;;19.70;80.10;;;19.79;52.58;97926.59;5010797;28;20033;-60
2022/08/10 06:45:15;;;;;;;;;;;19.90;79.70;;;19.88;51.35;97924.25;5014104;28;20041;-60
2022/08/10 06:47:45;;;;;;;3.47;1.70;;;20.00;78.90;;;20.02;51.66;97925.03;5001806;28;19916;-60
2022/08/10 06:50:19;;;;;;;6.30;1.50;;;20.10;78.70;;;20.13;51.03;97928.81;4995908;28;20029;-60
2022/08/10 06:52:49;;;;;;;3.67;1.90;;;20.20;78.00;;;20.21;50.81;97926.47;4994192;28;20159;-60
2022/08/10 06:55:16;;;;;;;3.13;1.70;;;20.30;77.40;;;20.32;50.54;97926.59;4993118;28;20590;-60
2022/08/10 06:57:43;;;;;;;2.03;1.48;;;20.40;77.60;;;20.48;51.04;97937.13;4993701;28;20436;-60
2022/08/10 07:00:11;;;;;;;3.00;1.83;;;20.60;77.80;;;20.59;50.07;97921.16;5012867;28;20484;-61
2022/08/10 07:02:50;;;;;;;2.53;1.50;;;20.70;77.20;;;20.74;49.64;97923.75;5001128;28;20108;-60
2022/08/10 07:05:23;;;;;;;1.65;1.40;;;20.80;76.90;;;20.92;47.61;97926.97;5016567;28;20095;-60
2022/08/10 07:07:54;;;;;;;1.92;1.45;;;21.00;74.70;;;21.04;47.55;97926.09;4999054;28;20037;-60
2022/08/10 07:10:23;;;;;;;4.68;1.58;;;21.10;74.30;;;21.20;47.59;97920.50;5003178;28;20040;-61
2022/08/10 07:12:54;;;;;;;9.02;1.40;;;21.20;74.40;;;21.42;46.86;97921.63;5015276;28;20028;-61
2022/08/10 07:15:23;;;;;;;2.10;1.48;;;21.40;73.80;;;21.58;46.70;97921.41;4993726;28;20026;-61
2022/08/10 07:17:51;;;;;;;2.83;1.45;;;21.60;73.20;;;21.75;46.04;97937.13;5016118;28;20064;-61
2022/08/10 07:20:19;;;;;;;1.73;1.33;;;21.70;72.90;;;21.89;45.79;97922.66;5022436;28;20520;-61
2022/08/10 07:22:51;;;;;;;2.38;1.45;;;21.90;72.20;;;22.01;46.08;97932.47;5002408;28;20589;-61
2022/08/10 07:25:24;;;;;;;4.72;1.70;;;22.00;71.90;;;22.10;44.89;97926.41;5015986;28;20038;-61
2022/08/10 07:27:50;;;;;;;;;;;22.10;71.00;;;22.24;45.18;97927.22;5022074;28;20115;-62
2022/08/10 07:30:16;;;;;;;1.58;1.42;;;22.20;70.90;;;22.35;44.93;97919.19;4993522;28;20384;-62
2022/08/10 07:32:43;;;;;;;2.40;1.50;;;22.40;71.10;;;22.50;45.95;97919.84;5008960;28;20048;-62
2022/08/10 07:35:14;;;;;;;4.15;1.70;;;22.50;71.40;;;22.62;43.93;97923.41;5002686;22;20082;-51
2022/08/10 07:37:41;;;;;;;3.15;1.33;;;22.60;69.70;;;22.73;44.05;97922.59;4989702;28;20045;-51
2022/08/10 07:40:09;;;;;;;2.67;1.60;;;22.70;69.40;;;22.81;43.51;97930.91;4987862;28;20462;-50
2022/08/10 07:42:36;;;;;;;3.65;1.67;;;22.70;69.10;;;22.86;43.53;97931.38;5008652;28;20030;-50
2022/08/10 07:45:04;;;;;;;2.25;1.48;;;22.80;69.30;;;22.96;43.34;97918.94;4989216;28;20113;-49
2022/08/10 07:47:34;;;;;;;1.80;1.50;;;22.80;69.10;;;23.10;43.46;97931.31;4996349;28;20036;-47
2022/08/10 07:50:04;;;;;;;2.00;1.42;;;23.00;69.20;;;23.21;42.60;97925.09;4994014;28;20115;-51
2022/08/10 07:52:33;;;;;;;2.92;1.63;;;23.10;68.10;;;23.28;42.83;97922.75;4993916;28;20025;-50
2022/08/10 07:55:02;;;;;;;2.85;1.33;;;23.20;67.90;;;23.32;41.59;97925.06;4993686;28;20060;-50
2022/08/10 07:57:33;;;;;;;3.45;1.38;;;23.20;66.80;;;23.39;41.79;97926.28;4997963;28;20032;-50
2022/08/10 08:00:10;;;;;;;1.65;1.33;;;23.30;66.70;;;23.37;41.33;97927.41;5008067;28;20088;-49
2022/08/10 08:02:51;;;;;;;2.90;1.40;;;23.30;65.70;;;23.36;41.79;97925.66;4996783;28;20018;-49
2022/08/10 08:05:21;;;;;;;2.22;1.70;;;23.30;66.30;;;23.49;42.09;97920.16;4995340;28;20034;-50
2022/08/10 08:07:48;;;;;;;3.05;1.38;;;23.40;66.60;;;23.61;41.85;97925.38;4999202;28;20052;-51
2022/08/10 08:10:16;;;;;;;2.22;1.52;;;23.50;66.60;;;23.65;41.13;97915.22;4995992;28;20065;-49
2022/08/10 08:12:44;;;;;;;2.47;1.75;;;23.60;65.40;;;23.72;40.85;97921.78;4985151;28;20246;-51
2022/08/10 08:15:14;;;;;;;3.47;1.27;;;23.60;65.40;;;23.80;40.76;97923.91;4982082;28;20248;-49
2022/08/10 08:17:41;;;;;;;1.98;1.35;;;23.70;65.10;;;23.88;40.85;97915.19;4987364;28;20034;-49
2022/08/10 08:20:09;;;;;;;3.67;1.60;;;23.80;65.10;;;23.95;40.41;97927.16;4998788;28;20025;-47
2022/08/10 08:22:35;;;;;;;1.83;1.25;;;23.80;64.70;;;24.01;40.39;97922.13;4984110;28;20128;-48
2022/08/10 08:25:02;;;;;;;1.48;1.33;;;23.90;64.30;;;24.02;39.99;97929.19;4992039;28;20034;-52
2022/08/10 08:27:29;;;;;;;2.55;1.55;;;24.00;63.50;;;24.10;40.10;97931.28;4989257;28;20128;-47
2022/08/10 08:30:14;;;;;;;4.45;1.45;;;24.00;63.20;;;24.18;39.56;97931.47;4997060;28;20057;-46
2022/08/10 08:32:42;;;;;;;5.60;1.75;;;24.10;63.20;;;24.23;39.36;97930.22;5000065;28;20052;-45
2022/08/10 08:35:14;;;;;;;1.98;1.40;;;24.10;62.90;;;24.20;39.38;97924.09;5001219;28;20112;-47
2022/08/10 08:38:06;;;;;;;1.58;1.30;;;24.10;62.00;;;24.27;39.27;97927.16;5000353;28;20022;-50
2022/08/10 08:40:36;;;;;;;5.05;1.20;;;24.10;62.50;;;24.41;39.40;97934.06;4993628;28;20037;-45
2022/08/10 08:43:38;;;;;;;3.20;1.40;;;24.30;62.70;;;24.50;39.00;97927.03;5007383;28;20112;-44
2022/08/10 08:46:34;;;;;;;2.25;1.40;;;24.40;62.20;;;24.54;38.05;97920.41;4995060;28;20632;-46
2022/08/10 08:49:44;;;;;;;4.82;1.50;;;24.40;61.30;;;24.58;38.69;97925.44;4994037;28;20236;-45
2022/08/10 08:56:24;;;;;;;3.70;1.35;;;24.50;59.80;;;24.73;38.40;97919.69;4995272;28;20120;-49
2022/08/10 08:59:01;;;;;;;3.05;1.63;;;24.60;60.60;;;24.80;37.73;97923.56;4966168;28;20049;-46
2022/08/10 09:01:57;;;;;;;4.63;1.63;;;24.70;59.70;;;24.88;37.16;97923.75;4997294;28;20109;-47
2022/08/10 09:04:59;;;;;;;5.07;1.70;;;24.80;59.20;;;24.87;37.31;97913.94;4987787;28;20153;-45
2022/08/10 09:08:05;;;;;;;2.65;1.75;;;24.80;59.00;;;24.92;36.50;97917.06;4993667;28;20118;-47
2022/08/10 09:11:29;;;;;;;4.55;1.83;;;24.80;58.20;;;25.03;36.39;97923.38;4996991;28;20042;-44
2022/08/10 09:14:18;;;;;;;5.20;1.65;;;24.90;58.00;;;25.13;35.82;97914.34;4998849;28;20052;-45
2022/08/10 09:16:58;;;;;;;1.48;1.38;;;25.00;57.40;;;25.17;35.11;97914.91;4990649;28;20044;-46
2022/08/10 09:19:40;;;;;;;4.10;1.45;;;25.10;57.00;;;25.23;34.02;97914.41;4995646;28;20037;-46
2022/08/10 09:22:15;;;;;;;1.70;1.55;;;25.10;55.70;;;25.33;34.18;97914.44;4997289;28;20533;-47
2022/08/10 09:24:49;;;;;;;4.07;1.60;;;25.20;55.10;;;25.38;33.44;97906.78;5000964;28;20030;-44
2022/08/10 09:27:31;;;;;;;4.03;1.40;;;25.30;54.80;;;25.54;32.96;97900.88;4990697;28;20027;-49
2022/08/10 09:30:09;;;;;;;2.15;1.50;;;25.40;55.20;;;25.59;32.50;97903.13;4991423;28;20158;-48
2022/08/10 09:32:55;;;;;;;4.28;1.52;;;25.50;53.50;;;25.65;32.09;97902.59;4983624;28;20121;-51
2022/08/10 09:35:50;;;;;;;4.28;1.38;;;25.50;52.80;;;25.72;32.55;97918.09;4977924;28;20149;-48
2022/08/10 09:38:46;;;;;;;3.03;1.50;;;25.60;52.90;;;25.69;31.64;97904.88;4988844;28;20455;-48
2022/08/10 09:41:36;;;;;;;1.40;1.30;;;25.60;52.30;;;25.72;31.66;97901.88;4987659;28;20409;-49
2022/08/10 09:44:24;;;;;;;2.22;1.45;;;25.60;52.10;;;25.64;32.27;97896.31;4980683;28;20128;-48
2022/08/10 09:47:19;;;;;;;2.63;1.33;;;25.60;52.40;;;25.61;32.23;97884.94;4982710;28;20136;-50
2022/08/10 09:50:16;;;;;;;1.83;1.27;;;25.60;52.40;;;25.72;31.22;97892.94;4987098;28;20455;-49
2022/08/10 09:53:07;;;;;;;2.35;1.33;;;25.60;51.90;;;25.77;29.82;97881.69;4990650;28;20030;-45
2022/08/10 09:55:50;;;;;;;2.03;1.40;;;25.60;49.30;;;25.92;30.75;97888.41;4988560;28;20061;-47
2022/08/10 09:58:38;;;;;;;7.22;1.35;;;25.70;50.50;;;26.04;29.94;97889.13;4992331;28;20030;-45
2022/08/10 10:01:23;;;;;;;3.42;1.20;;;25.90;49.70;;;26.19;28.60;97885.00;4992336;28;20092;-45
2022/08/10 10:04:35;;;;;;;2.15;1.20;;;26.10;49.00;;;26.19;29.09;97885.00;4990690;28;20038;-47
2022/08/10 10:07:06;;;;;;;1.37;1.10;;;26.10;48.40;;;26.20;28.96;97886.72;4991137;28;20029;-45
2022/08/10 10:10:00;;;;;;;2.67;1.48;;;26.10;48.10;;;26.24;29.15;97888.16;4995435;28;20840;-47
2022/08/10 10:12:43;;;;;;;2.45;1.40;;;26.10;48.20;;;26.28;29.10;97880.59;4998686;28;20028;-47
2022/08/10 10:15:41;;;;;;;3.47;1.10;;;26.10;48.50;;;26.38;29.30;97873.34;4999782;28;20048;-46
2022/08/10 10:18:28;;;;;;;1.48;1.23;;;26.20;48.30;;;26.45;29.76;97893.41;4998223;28;20121;-49
2022/08/10 10:21:07;;;;;;;1.52;1.30;;;26.30;49.20;;;26.47;28.72;97885.13;5000748;28;20555;-47
2022/08/10 10:24:06;;;;;;;2.42;1.10;;;26.30;48.30;;;26.52;28.75;97880.13;5000965;28;20076;-47
2022/08/10 10:26:54;;;;;;;3.75;1.70;;;26.40;47.90;;;26.52;28.27;97877.41;5001442;28;20293;-49
2022/08/10 10:29:58;;;;;;;3.58;1.27;;;26.40;47.40;;;26.53;27.73;97881.00;5000270;28;20114;-50
2022/08/10 10:32:47;;;;;;;1.70;1.35;;;26.40;46.50;;;26.53;28.59;97889.09;4997948;28;20026;-46
2022/08/10 10:35:36;;;;;;;1.70;1.20;;;26.40;47.00;;;26.51;28.45;97878.44;4998607;28;20528;-50
2022/08/10 10:38:06;;;;;;;2.22;1.15;;;26.40;47.60;;;26.55;28.77;97879.00;5000586;28;20030;-48
2022/08/10 10:41:02;;;;;;;4.88;1.50;;;26.40;48.10;;;26.57;30.05;97885.09;4996843;28;20030;-46
2022/08/10 10:44:14;;;;;;;3.08;1.48;;;26.40;48.90;;;26.48;29.60;97876.84;4998985;28;20087;-50
2022/08/10 10:46:57;;;;;;;2.97;1.40;;;26.40;48.70;;;26.47;28.98;97867.06;4999339;28;20100;-50
2022/08/10 10:50:02;;;;;;;1.92;1.40;;;26.40;48.00;;;26.53;29.83;97867.47;4999890;28;20080;-47
2022/08/10 10:52:39;;;;;;;1.77;1.40;;;26.40;48.70;;;26.59;29.94;97872.28;4999728;28;20129;-47
2022/08/10 10:56:02;;;;;;;2.05;1.50;;;26.50;49.30;;;26.63;30.25;97865.59;5000027;28;20045;-47